Chavies, Kentucky
Current Conditions -  °F | °C
As of 12:53 AM on Thursday 29 Jan 2015 (Local Time) from KJKL Reporting Station
Clear Clear  
Wind Chill: 32°   Ceiling: Unl
Heat Index: 32°   Visibility: 10mi
Dew Point: 19°   Wind: 3mph
Humidity: 59%   Direction: 150°SSE
Pressure: 30.15"   Gusts: NA
Location:  37.35°N, 83.36°W
Report Text: KJKL 290553Z AUTO 15003KT 10SM CLR 00/M07 A3015 RMK AO2 SLP220 T00001072 10006 21017 58020
Loading
Personal Weather Stations






























Interactive Weather Map New forecast layout! Learn more

10-Day Weather Forecast

Advertisements
Track Severe Weather on mobile